KASE/ASE METAR and TAF weather

Enter ICAO airport designator
Station Type Date Time Source
KASE METAR 2018/01/24 06:53 UTC NOAA

KASE 240653Z AUTO 21004KT 10SM CLR M12/M16 A3034 RMK AO2 SLP301 T11171156 400061144


Station Type Date Time Source
KASE Decoded METAR 2018/01/24 06:53 UTC NOAA

ASPEN-PITKIN COUNTY AIRPORT, CO, United States (KASE) 39-14N 106-52W 2354M
Jan 24, 2018 - 01:53 AM EST / 2018.01.24 0653 UTC
Wind: from the SSW (210 degrees) at 5 MPH (4 KT):0
Visibility: 10 mile(s):0
Sky conditions: clear
Temperature: 10.9 F (-11.7 C)
Windchill: 1 F (-17 C):1
Dew Point: 3.9 F (-15.6 C)
Relative Humidity: 72%
Pressure (altimeter): 30.34 in. Hg (1027 hPa)
ob: KASE 240653Z AUTO 21004KT 10SM CLR M12/M16 A3034 RMK AO2 SLP301 T11171156 400061144
cycle: 7

Station Type Date Time Source
KASE TAF 2018/01/24 06:22 UTC NOAA

TAF KASE 240520Z 2406/2506 20006KT P6SM FEW250
FM241700 32004KT P6SM FEW250
FM250100 20004KT P6SM FEW250


Example: see airport list